Time;durP1;ratioP1;P1;durP2;ratioP2;P2;SDS_P1;SDS_P2;PMS_P1;PMS_P2;Temp;Humidity;BMP_temperature;BMP_pressure;BME280_temperature;BME280_humidity;BME280_pressure;Samples;Min_cycle;Max_cycle;Signal;HPM_P1;HPM_P2
2024/04/08 00:00:30;;;;;;;9.57;4.20;;;;;;;9.71;77.66;99258.91;5110803;28;20159;-71
2024/04/08 00:02:57;;;;;;;5.80;4.22;;;;;;;9.70;78.20;99256.47;5094741;28;20114;-69
2024/04/08 00:05:23;;;;;;;7.35;4.18;;;;;;;9.68;77.43;99254.09;5094497;28;20064;-71
2024/04/08 00:07:51;;;;;;;4.35;3.53;;;;;;;9.69;78.06;99250.41;5113795;28;20054;-71
2024/04/08 00:10:18;;;;;;;6.35;3.85;;;;;;;9.67;77.96;99251.66;5099405;28;20032;-71
2024/04/08 00:12:45;;;;;;;5.45;3.70;;;;;;;9.63;77.15;99243.38;5113424;28;20432;-72
2024/04/08 00:15:12;;;;;;;5.05;4.20;;;;;;;9.64;77.58;99252.94;5094959;28;20134;-69
2024/04/08 00:17:40;;;;;;;6.13;4.38;;;;;;;9.61;77.39;99255.25;5078239;28;20031;-72
2024/04/08 00:20:07;;;;;;;4.75;3.42;;;;;;;9.54;77.53;99250.88;5094627;28;20093;-70
2024/04/08 00:22:33;;;;;;;7.85;4.00;;;;;;;9.58;77.48;99248.56;5112603;28;20131;-71
2024/04/08 00:24:59;;;;;;;5.30;3.50;;;;;;;9.57;77.85;99262.84;5095260;28;20124;-70
2024/04/08 00:27:25;;;;;;;5.13;3.67;;;;;;;9.59;77.55;99257.31;5113263;28;20646;-69
2024/04/08 00:29:51;;;;;;;4.88;3.67;;;;;;;9.53;78.59;99270.47;5094833;28;20031;-70
2024/04/08 00:32:17;;;;;;;4.93;3.60;;;;;;;9.53;78.11;99267.81;5113234;28;20046;-70
2024/04/08 00:34:43;;;;;;;6.05;3.83;;;;;;;9.55;77.86;99271.00;5113043;28;20043;-72
2024/04/08 00:37:09;;;;;;;5.70;4.15;;;;;;;9.53;77.81;99259.88;5058310;28;20036;-71
2024/04/08 00:39:35;;;;;;;5.88;4.10;;;;;;;9.51;77.24;99263.78;5094714;28;20519;-69
2024/04/08 00:42:02;;;;;;;7.10;4.10;;;;;;;9.53;77.80;99267.81;5074528;28;20073;-71
2024/04/08 00:44:28;;;;;;;6.22;3.78;;;;;;;9.52;77.10;99263.53;5078114;28;20048;-71
2024/04/08 00:46:56;;;;;;;5.35;4.03;;;;;;;9.45;78.12;99254.94;5119679;27;20043;-69
2024/04/08 00:49:23;;;;;;;8.25;4.00;;;;;;;9.50;78.33;99264.81;5085176;28;20049;-71
2024/04/08 00:51:49;;;;;;;6.72;3.85;;;;;;;9.49;77.00;99271.94;5059659;28;20437;-71
2024/04/08 00:54:18;;;;;;;7.38;3.85;;;;;;;9.50;77.67;99276.22;5054417;28;20067;-71
2024/04/08 00:56:44;;;;;;;5.10;3.67;;;;;;;9.49;77.60;99279.88;5096177;28;20040;-71
2024/04/08 00:59:13;;;;;;;6.07;3.80;;;;;;;9.45;78.08;99262.88;5067855;28;20098;-69
2024/04/08 01:01:39;;;;;;;5.40;3.90;;;;;;;9.46;77.84;99274.25;5071693;28;20040;-70
2024/04/08 01:04:05;;;;;;;5.70;3.95;;;;;;;9.46;78.12;99264.47;5070964;28;20130;-70
2024/04/08 01:06:31;;;;;;;4.60;3.33;;;;;;;9.47;77.45;99270.56;5070522;28;20106;-71
2024/04/08 01:08:58;;;;;;;6.68;3.70;;;;;;;9.46;77.81;99261.03;5053853;28;20085;-71
2024/04/08 01:11:25;;;;;;;8.15;3.58;;;;;;;9.44;77.34;99266.56;5048199;28;20432;-71
2024/04/08 01:13:51;;;;;;;4.68;3.45;;;;;;;9.46;78.00;99258.38;5070381;28;20044;-71
2024/04/08 01:16:18;;;;;;;6.72;3.78;;;;;;;9.44;77.50;99245.41;5070743;28;20044;-70
2024/04/08 01:18:44;;;;;;;7.13;3.97;;;;;;;9.44;77.31;99250.69;5071764;28;20459;-71
2024/04/08 01:21:11;;;;;;;4.63;3.45;;;;;;;9.45;78.06;99246.22;5070823;28;20136;-70
2024/04/08 01:23:45;;;;;;;5.45;3.47;;;;;;;9.46;77.79;99251.25;5070808;28;20052;-71
2024/04/08 01:26:11;;;;;;;5.80;3.63;;;;;;;9.48;77.36;99249.19;5070777;28;20414;-72
2024/04/08 01:28:40;;;;;;;5.85;3.80;;;;;;;9.48;78.07;99249.19;5071154;28;20040;-71
2024/04/08 01:31:07;;;;;;;4.55;3.60;;;;;;;9.43;77.44;99245.63;5070468;28;20079;-71
2024/04/08 01:33:33;;;;;;;6.20;3.30;;;;;;;9.44;77.20;99244.56;5053460;28;20048;-70
2024/04/08 01:36:00;;;;;;;6.72;3.60;;;;;;;9.47;77.64;99252.03;5070745;28;20375;-71
2024/04/08 01:38:27;;;;;;;4.55;3.38;;;;;;;9.44;78.27;99257.81;5071667;28;20559;-72
2024/04/08 01:40:56;;;;;;;5.22;3.63;;;;;;;9.43;77.89;99259.66;5071119;28;20059;-71
2024/04/08 01:43:23;;;;;;;5.30;3.40;;;;;;;9.45;77.29;99262.06;5071635;28;20144;-72
2024/04/08 01:45:52;;;;;;;4.45;3.25;;;;;;;9.43;77.12;99261.50;5053977;28;20047;-72
2024/04/08 01:48:18;;;;;;;4.15;3.47;;;;;;;9.41;77.92;99259.09;5071570;28;20619;-71
2024/04/08 01:50:44;;;;;;;4.85;3.50;;;;;;;9.38;78.06;99254.25;5086700;28;20056;-70
2024/04/08 01:53:10;;;;;;;4.03;3.30;;;;;;;9.43;77.66;99257.00;5090532;28;20081;-70
2024/04/08 01:55:37;;;;;;;3.90;3.22;;;;;;;9.40;77.61;99243.44;5091923;28;20067;-71
2024/04/08 01:58:03;;;;;;;7.80;4.22;;;;;;;9.42;77.67;99242.19;5090606;28;20566;-72
2024/04/08 02:00:29;;;;;;;7.53;3.80;;;;;;;9.43;77.01;99238.47;5072106;28;20509;-70
2024/04/08 02:02:55;;;;;;;5.28;3.80;;;;;;;9.37;77.95;99234.13;5091649;28;20149;-72
2024/04/08 02:05:22;;;;;;;6.57;3.60;;;;;;;9.36;77.33;99232.53;5085345;28;20097;-72
2024/04/08 02:07:50;;;;;;;6.93;3.85;;;;;;;9.36;78.10;99226.44;5070086;28;20546;-73
2024/04/08 02:10:19;;;;;;;6.65;3.70;;;;;;;9.39;77.81;99223.34;5067638;28;20635;-70
2024/04/08 02:12:47;;;;;;;4.38;3.55;;;;;;;9.39;77.59;99221.47;5090166;28;20048;-73
2024/04/08 02:15:13;;;;;;;5.18;3.72;;;;;;;9.40;77.84;99211.69;5089806;28;20048;-71
2024/04/08 02:17:40;;;;;;;5.63;3.90;;;;;;;9.39;77.91;99210.91;5090477;28;20121;-70
2024/04/08 02:20:06;;;;;;;4.65;3.63;;;;;;;9.41;77.65;99215.94;5089796;28;20615;-72
2024/04/08 02:22:33;;;;;;;5.05;3.63;;;;;;;9.38;78.09;99208.47;5057058;28;20047;-72
2024/04/08 02:25:00;;;;;;;4.63;3.42;;;;;;;9.35;77.66;99201.81;5072812;28;20036;-72
2024/04/08 02:27:32;;;;;;;4.93;4.03;;;;;;;9.36;78.11;99208.72;5091374;28;20127;-71
2024/04/08 02:29:58;;;;;;;5.57;3.47;;;;;;;9.37;78.17;99199.75;5072622;28;20039;-70
2024/04/08 02:32:25;;;;;;;5.43;4.05;;;;;;;9.35;77.78;99195.72;5089296;28;20071;-72
2024/04/08 02:34:51;;;;;;;5.82;4.25;;;;;;;9.39;77.68;99192.38;5089649;28;20047;-72
2024/04/08 02:37:17;;;;;;;5.05;3.90;;;;;;;9.39;77.51;99183.66;5091140;28;20044;-71
2024/04/08 02:39:43;;;;;;;7.47;5.15;;;;;;;9.45;77.37;99188.00;5089900;28;20043;-72
2024/04/08 02:42:09;;;;;;;6.55;3.80;;;;;;;9.46;77.50;99193.03;5091438;28;20035;-71
2024/04/08 02:44:36;;;;;;;6.57;4.43;;;;;;;9.46;77.78;99192.25;5091690;28;20263;-72
2024/04/08 02:47:02;;;;;;;5.50;4.13;;;;;;;9.48;77.96;99187.53;5095442;28;20054;-70
2024/04/08 02:49:29;;;;;;;7.78;4.47;;;;;;;9.49;78.06;99186.47;5101444;28;20047;-71
2024/04/08 02:51:56;;;;;;;6.30;4.50;;;;;;;9.50;77.90;99178.31;5115034;28;20040;-70
2024/04/08 02:54:23;;;;;;;9.00;4.60;;;;;;;9.51;77.46;99182.56;5080431;28;20144;-69
2024/04/08 02:56:49;;;;;;;9.65;4.50;;;;;;;9.47;77.98;99180.59;5096688;28;20120;-70
2024/04/08 02:59:15;;;;;;;5.97;4.35;;;;;;;9.47;77.27;99178.78;5115370;28;20067;-70
2024/04/08 03:01:42;;;;;;;5.72;4.00;;;;;;;9.46;77.56;99179.81;5115458;28;20512;-70
2024/04/08 03:04:08;;;;;;;8.25;4.85;;;;;;;9.46;78.24;99187.75;5115067;28;20040;-72
2024/04/08 03:06:35;;;;;;;5.97;4.47;;;;;;;9.50;77.72;99183.63;5096508;28;20522;-70
2024/04/08 03:09:04;;;;;;;7.57;4.95;;;;;;;9.49;78.52;99178.53;5115305;28;20036;-70
2024/04/08 03:11:31;;;;;;;5.53;4.53;;;;;;;9.49;78.42;99176.69;5096450;28;20047;-71
2024/04/08 03:13:58;;;;;;;6.03;4.72;;;;;;;9.49;78.24;99174.03;5097183;28;20051;-71
2024/04/08 03:16:24;;;;;;;7.55;4.90;;;;;;;9.48;79.14;99164.50;5096713;28;20492;-71
2024/04/08 03:18:51;;;;;;;6.97;4.45;;;;;;;9.47;78.98;99168.22;5096775;28;20056;-71
2024/04/08 03:21:18;;;;;;;5.93;4.60;;;;;;;9.45;79.21;99161.53;5062984;28;20478;-71
2024/04/08 03:23:44;;;;;;;6.40;4.40;;;;;;;9.47;79.14;99167.38;5079712;28;20540;-71
2024/04/08 03:26:12;;;;;;;9.18;5.00;;;;;;;9.49;78.50;99165.31;5079824;28;20380;-72
2024/04/08 03:28:39;;;;;;;7.32;5.20;;;;;;;9.48;78.64;99163.72;5063234;28;20065;-72
2024/04/08 03:31:06;;;;;;;6.68;4.43;;;;;;;9.57;78.89;99172.88;5096415;28;20096;-70
2024/04/08 03:33:33;;;;;;;8.10;4.75;;;;;;;9.60;78.04;99163.69;5079246;28;20138;-71
2024/04/08 03:36:00;;;;;;;6.57;4.50;;;;;;;9.60;78.02;99174.25;5096305;28;20092;-72
2024/04/08 03:38:27;;;;;;;6.38;4.78;;;;;;;9.61;77.94;99168.72;5114162;28;20043;-72
2024/04/08 03:40:58;;;;;;;5.30;4.15;;;;;;;9.63;77.72;99165.84;5096386;28;20045;-71
2024/04/08 03:43:25;;;;;;;6.00;4.30;;;;;;;9.64;77.63;99165.59;5079310;28;20051;-73
2024/04/08 03:45:53;;;;;;;8.60;4.80;;;;;;;9.62;78.30;99159.75;5113948;28;20047;-72
2024/04/08 03:48:22;;;;;;;6.38;4.43;;;;;;;9.62;78.45;99157.09;5095659;28;20048;-71
2024/04/08 03:50:48;;;;;;;6.38;4.50;;;;;;;9.61;78.63;99163.41;5092132;28;20099;-71
2024/04/08 03:53:15;;;;;;;8.85;5.50;;;;;;;9.57;78.65;99162.31;5075647;28;20075;-73
2024/04/08 03:55:40;;;;;;;5.82;4.70;;;;;;;9.61;78.51;99163.41;5092620;28;20047;-71
2024/04/08 03:58:06;;;;;;;6.65;5.25;;;;;;;9.61;78.97;99168.72;5092043;28;20515;-72
2024/04/08 04:00:32;;;;;;;7.63;5.15;;;;;;;9.61;79.02;99165.28;5072218;28;20068;-70
2024/04/08 04:02:58;;;;;;;5.72;4.95;;;;;;;9.64;78.61;99165.59;5078501;28;20041;-72
2024/04/08 04:05:24;;;;;;;7.05;5.30;;;;;;;9.68;78.21;99168.59;5085622;28;20382;-72
2024/04/08 04:07:50;;;;;;;5.88;4.45;;;;;;;9.70;78.42;99162.00;5057957;28;20452;-72
2024/04/08 04:10:18;;;;;;;5.75;4.40;;;;;;;9.78;78.31;99168.75;5091503;28;20039;-72
2024/04/08 04:12:44;;;;;;;7.68;4.40;;;;;;;9.81;78.20;99176.22;5091564;28;20433;-73
2024/04/08 04:15:12;;;;;;;5.82;4.60;;;;;;;9.85;78.34;99181.84;5058504;28;20046;-71
2024/04/08 04:17:39;;;;;;;7.55;4.80;;;;;;;9.83;78.05;99176.81;5092424;28;20051;-73
2024/04/08 04:20:09;;;;;;;5.82;4.38;;;;;;;9.93;77.41;99189.41;5074665;28;20098;-72
2024/04/08 04:22:37;;;;;;;7.53;4.45;;;;;;;9.94;76.93;99178.59;5092156;28;20505;-73
2024/04/08 04:25:03;;;;;;;7.68;5.07;;;;;;;10.01;77.61;99176.59;5091947;28;20254;-71
2024/04/08 04:27:30;;;;;;;6.00;4.05;;;;;;;10.07;77.00;99188.09;5092264;28;20047;-72
2024/04/08 04:29:57;;;;;;;5.70;3.80;;;;;;;10.10;76.48;99198.19;5091158;28;20417;-72
2024/04/08 04:32:23;;;;;;;4.10;3.70;;;;;;;10.04;76.77;99190.41;5074253;28;20509;-71
2024/04/08 04:34:53;;;;;;;5.88;4.40;;;;;;;10.07;76.48;99193.38;5072797;28;20044;-72
2024/04/08 04:37:20;;;;;;;6.90;3.83;;;;;;;10.11;76.74;99196.34;5057475;28;20036;-73
2024/04/08 04:39:46;;;;;;;6.30;4.60;;;;;;;10.11;77.11;99189.19;5083553;28;20048;-75
2024/04/08 04:42:13;;;;;;;6.80;4.68;;;;;;;10.12;76.52;99196.13;5074989;28;20044;-72
2024/04/08 04:44:39;;;;;;;8.38;4.20;;;;;;;10.15;76.09;99192.19;5063374;28;20067;-71
2024/04/08 04:47:05;;;;;;;5.65;4.50;;;;;;;10.21;76.32;99188.59;5093356;28;20524;-73
2024/04/08 04:49:31;;;;;;;5.07;4.30;;;;;;;10.29;76.21;99188.19;5057198;28;20127;-73
2024/04/08 04:51:57;;;;;;;6.07;4.25;;;;;;;10.33;75.71;99185.91;5093273;28;20378;-73
2024/04/08 04:54:22;;;;;;;5.90;4.22;;;;;;;10.37;75.25;99181.72;5090230;28;20501;-72
2024/04/08 04:56:49;;;;;;;5.75;4.40;;;;;;;10.40;75.56;99175.94;5093125;28;20044;-74
2024/04/08 04:59:15;;;;;;;6.50;4.45;;;;;;;10.45;74.62;99178.66;5081344;28;20377;-73
2024/04/08 05:01:41;;;;;;;5.68;4.55;;;;;;;10.49;75.01;99166.53;5058039;28;20468;-72
2024/04/08 05:04:07;;;;;;;10.85;4.68;;;;;;;10.56;74.06;99167.19;5092421;28;20042;-74
2024/04/08 05:06:33;;;;;;;6.32;4.53;;;;;;;10.57;74.61;99173.28;5090944;28;20050;-73
2024/04/08 05:08:59;;;;;;;5.60;4.32;;;;;;;10.57;75.05;99168.78;5091301;28;20043;-70
2024/04/08 05:11:25;;;;;;;8.07;5.78;;;;;;;10.61;74.53;99177.03;5088459;28;20168;-71
2024/04/08 05:13:51;;;;;;;6.07;4.18;;;;;;;10.62;74.63;99157.47;5090382;28;20044;-71
2024/04/08 05:16:17;;;;;;;6.15;4.70;;;;;;;10.63;74.51;99161.72;5090267;28;20036;-72
2024/04/08 05:18:44;;;;;;;6.18;4.32;;;;;;;10.64;74.31;99160.66;5090857;28;20068;-72
2024/04/08 05:21:10;;;;;;;6.35;4.68;;;;;;;10.66;74.44;99153.28;5090894;28;20100;-72
2024/04/08 05:23:38;;;;;;;7.03;4.80;;;;;;;10.72;74.29;99151.50;5091001;28;20101;-72
2024/04/08 05:26:05;;;;;;;7.40;4.93;;;;;;;10.77;73.74;99157.66;5090651;28;20032;-73
2024/04/08 05:28:31;;;;;;;8.38;5.03;;;;;;;10.66;74.37;99158.56;5092409;28;20036;-72
2024/04/08 05:30:59;;;;;;;8.38;5.30;;;;;;;10.62;74.21;99166.22;5090636;28;20044;-73
2024/04/08 05:33:25;;;;;;;6.68;4.38;;;;;;;10.68;74.68;99159.13;5090626;28;20106;-72
2024/04/08 05:35:50;;;;;;;7.20;5.15;;;;;;;10.69;74.18;99160.72;5090672;28;20489;-71
2024/04/08 05:38:16;;;;;;;10.65;4.80;;;;;;;10.85;73.96;99165.22;5073722;28;20044;-72
2024/04/08 05:40:43;;;;;;;10.35;5.30;;;;;;;11.02;73.46;99178.41;5072330;28;20410;-71
2024/04/08 05:43:10;;;;;;;7.40;4.97;;;;;;;11.13;73.18;99171.41;5072163;28;20040;-71
2024/04/08 05:45:36;;;;;;;6.85;4.28;;;;;;;11.19;72.76;99177.59;5091454;28;20098;-71
2024/04/08 05:48:04;;;;;;;7.25;5.00;;;;;;;11.33;72.47;99178.81;5087485;28;20052;-72
2024/04/08 05:50:30;;;;;;;6.43;4.97;;;;;;;11.35;72.41;99166.91;5071223;28;20396;-73
2024/04/08 05:52:56;;;;;;;7.05;4.60;;;;;;;11.35;72.23;99166.09;5110658;28;20036;-70
2024/04/08 05:55:22;;;;;;;7.57;4.80;;;;;;;11.32;72.32;99170.06;5105977;28;20500;-69
2024/04/08 05:57:48;;;;;;;7.80;4.82;;;;;;;11.21;72.68;99152.41;5110885;28;20039;-67
2024/04/08 06:00:18;;;;;;;6.57;4.55;;;;;;;11.18;72.75;99144.13;5111162;28;20050;-67
2024/04/08 06:02:50;;;;;;;8.60;4.82;;;;;;;11.21;73.21;99156.91;5092739;28;20523;-69
2024/04/08 06:05:21;;;;;;;7.55;4.85;;;;;;;11.19;72.91;99132.47;5054724;28;20093;-68
2024/04/08 06:07:49;;;;;;;7.57;5.13;;;;;;;11.31;72.80;99123.31;5076293;28;20062;-68
2024/04/08 06:10:19;;;;;;;9.50;4.53;;;;;;;11.48;72.21;99138.38;5110234;28;20427;-67
2024/04/08 06:12:45;;;;;;;6.55;4.30;;;;;;;11.55;71.69;99125.72;5092219;28;20031;-65
2024/04/08 06:15:12;;;;;;;5.78;4.38;;;;;;;11.57;71.99;99128.91;5085020;28;20062;-69
2024/04/08 06:17:38;;;;;;;6.35;4.20;;;;;;;11.65;71.58;99130.31;5052395;28;20043;-71
2024/04/08 06:20:04;;;;;;;9.93;4.53;;;;;;;11.79;70.86;99129.69;5105493;28;20048;-70
2024/04/08 06:22:31;;;;;;;5.80;4.43;;;;;;;11.89;70.72;99125.53;5107459;28;20099;-71
2024/04/08 06:24:57;;;;;;;6.45;4.20;;;;;;;11.89;70.49;99099.78;5092401;28;20126;-71
2024/04/08 06:27:23;;;;;;;5.43;4.50;;;;;;;11.98;70.27;99105.44;5092032;28;20039;-71
2024/04/08 06:29:49;;;;;;;6.72;4.38;;;;;;;12.04;70.24;99115.84;5091025;28;20405;-68
2024/04/08 06:32:15;;;;;;;5.28;4.22;;;;;;;12.12;69.87;99127.03;5110046;28;20063;-68
2024/04/08 06:34:41;;;;;;;5.85;4.47;;;;;;;12.20;69.26;99121.25;5092276;28;20047;-71
2024/04/08 06:37:08;;;;;;;5.32;4.40;;;;;;;12.33;69.06;99110.22;5075524;28;20044;-70
2024/04/08 06:39:33;;;;;;;6.53;4.60;;;;;;;12.56;68.55;99116.19;5059464;28;20118;-68
2024/04/08 06:41:59;;;;;;;8.55;4.50;;;;;;;12.84;67.69;99109.72;5111161;28;20067;-68
2024/04/08 06:44:26;;;;;;;6.05;4.13;;;;;;;13.16;66.39;99123.69;5110822;28;20043;-69
2024/04/08 06:46:52;;;;;;;9.50;4.63;;;;;;;13.35;65.33;99156.00;5075682;28;20054;-69
2024/04/08 06:49:18;;;;;;;8.25;4.35;;;;;;;13.26;65.74;99151.44;5110741;28;20188;-67
2024/04/08 06:51:44;;;;;;;6.68;4.13;;;;;;;13.26;65.29;99122.16;5111376;28;20176;-67
2024/04/08 06:54:10;;;;;;;5.97;3.75;;;;;;;13.45;64.70;99111.84;5105334;28;20039;-68
2024/04/08 06:56:38;;;;;;;9.90;4.00;;;;;;;13.73;64.19;99107.88;5092694;28;20536;-67
2024/04/08 06:59:04;;;;;;;9.00;4.43;;;;;;;14.17;63.14;99102.81;5058413;28;20042;-67
2024/04/08 07:01:30;;;;;;;7.80;4.05;;;;;;;14.33;62.48;99103.63;5110911;28;20043;-68
2024/04/08 07:03:56;;;;;;;5.07;3.83;;;;;;;14.54;61.75;99101.75;5097725;28;20071;-68
2024/04/08 07:06:22;;;;;;;5.32;3.90;;;;;;;14.63;60.79;99086.78;5105688;28;20101;-68
2024/04/08 07:08:48;;;;;;;6.97;4.03;;;;;;;14.56;60.72;99086.28;5092047;28;20039;-66
2024/04/08 07:11:14;;;;;;;7.82;4.32;;;;;;;14.58;61.04;99097.47;5091934;28;20142;-66
2024/04/08 07:13:40;;;;;;;5.13;3.90;;;;;;;14.64;61.21;99111.59;5091461;28;20070;-68
2024/04/08 07:16:08;;;;;;;5.75;4.20;;;;;;;14.61;61.02;99112.94;5091528;28;20039;-66
2024/04/08 07:18:34;;;;;;;8.40;4.15;;;;;;;14.64;60.63;99111.59;5108962;28;20036;-67
2024/04/08 07:21:02;;;;;;;7.85;3.63;;;;;;;14.73;60.62;99126.75;5092314;28;20493;-67
2024/04/08 07:23:28;;;;;;;5.53;3.85;;;;;;;14.81;60.36;99121.97;5091457;28;20036;-68
2024/04/08 07:25:54;;;;;;;8.43;4.43;;;;;;;14.77;60.44;99138.50;5110832;28;20122;-67
2024/04/08 07:28:20;;;;;;;7.35;4.10;;;;;;;14.68;60.94;99148.16;5110079;28;20139;-68
2024/04/08 07:30:46;;;;;;;6.18;4.43;;;;;;;14.74;60.48;99140.94;5076938;28;20127;-67
2024/04/08 07:33:11;;;;;;;5.82;4.30;;;;;;;14.79;60.73;99132.88;5078478;27;20077;-68
2024/04/08 07:35:37;;;;;;;8.93;4.32;;;;;;;14.83;60.55;99119.84;5069049;28;20412;-68
2024/04/08 07:38:04;;;;;;;6.45;4.30;;;;;;;14.86;60.28;99136.09;5113195;28;20123;-68
2024/04/08 07:40:29;;;;;;;7.03;4.75;;;;;;;14.74;60.82;99130.25;5095066;28;20040;-66
2024/04/08 07:42:55;;;;;;;7.15;3.75;;;;;;;14.76;61.13;99112.09;5095326;28;20036;-68
2024/04/08 07:45:21;;;;;;;8.57;4.18;;;;;;;14.76;61.18;99112.91;5113425;28;20498;-67
2024/04/08 07:47:46;;;;;;;6.18;3.90;;;;;;;14.75;60.78;99100.63;5113307;28;20097;-67
2024/04/08 07:50:12;;;;;;;7.03;4.20;;;;;;;14.69;61.06;99090.25;5113526;28;20064;-69
2024/04/08 07:52:39;;;;;;;5.97;3.92;;;;;;;14.76;60.83;99088.06;5095738;28;20480;-68
2024/04/08 07:55:06;;;;;;;7.30;3.85;;;;;;;14.82;60.58;99075.53;5078369;28;20083;-66
2024/04/08 07:57:32;;;;;;;9.07;4.07;;;;;;;14.89;60.67;99079.50;5113495;28;20118;-68
2024/04/08 07:59:59;;;;;;;9.00;4.28;;;;;;;15.01;60.20;99089.88;5095433;28;20039;-66
2024/04/08 08:02:27;;;;;;;6.15;4.10;;;;;;;15.14;59.76;99083.91;5076972;28;20606;-65
2024/04/08 08:04:53;;;;;;;6.93;3.80;;;;;;;15.39;59.26;99088.34;5094564;28;20048;-70
2024/04/08 08:07:19;;;;;;;5.75;4.10;;;;;;;15.54;58.52;99100.00;5113706;28;20118;-69
2024/04/08 08:09:45;;;;;;;7.47;4.10;;;;;;;15.70;58.19;99096.19;5095183;28;20039;-67
2024/04/08 08:12:11;;;;;;;7.88;4.07;;;;;;;15.79;57.97;99096.38;5112730;28;20047;-70
2024/04/08 08:14:36;;;;;;;7.05;3.92;;;;;;;15.64;57.83;99087.38;5094905;28;20039;-69
2024/04/08 08:17:03;;;;;;;8.00;4.35;;;;;;;15.58;58.66;99106.38;5113441;28;20062;-71
2024/04/08 08:19:29;;;;;;;9.40;4.80;;;;;;;15.57;58.68;99107.47;5095382;28;20196;-71
2024/04/08 08:21:55;;;;;;;6.45;4.28;;;;;;;15.66;58.67;99095.13;5113235;28;20039;-71
2024/04/08 08:24:21;;;;;;;11.13;4.10;;;;;;;15.83;58.25;99084.88;5077578;28;20039;-70
2024/04/08 08:26:47;;;;;;;11.27;4.35;;;;;;;15.91;57.85;99075.44;5112755;27;20050;-69
2024/04/08 08:29:13;;;;;;;7.00;4.30;;;;;;;16.10;57.76;99073.69;5113088;28;20027;-68
2024/04/08 08:31:39;;;;;;;7.53;3.88;;;;;;;16.26;57.44;99076.22;5093655;28;20418;-69
2024/04/08 08:34:04;;;;;;;7.63;3.55;;;;;;;16.40;56.82;99079.03;5111438;27;20389;-69
2024/04/08 08:36:30;;;;;;;8.93;4.32;;;;;;;16.49;56.22;99082.66;5094505;28;20059;-68
2024/04/08 08:38:56;;;;;;;10.90;4.20;;;;;;;16.44;56.50;99083.53;5094361;28;20036;-68
2024/04/08 08:41:25;;;;;;;6.22;4.00;;;;;;;16.57;56.22;99092.75;5094529;28;20040;-67
2024/04/08 08:43:52;;;;;;;5.27;3.77;;;;;;;16.68;56.07;99093.47;5112269;28;20519;-69
2024/04/08 08:46:18;;;;;;;9.90;4.40;;;;;;;16.58;56.29;99105.84;5112926;28;20412;-71
2024/04/08 08:48:45;;;;;;;6.85;3.95;;;;;;;16.67;56.38;99102.56;5112134;28;20039;-69
2024/04/08 08:51:11;;;;;;;5.45;3.90;;;;;;;16.77;55.75;99103.28;5111914;28;20044;-68
2024/04/08 08:53:37;;;;;;;8.68;3.78;;;;;;;16.82;55.92;99102.41;5094170;28;20539;-68
2024/04/08 08:56:05;;;;;;;7.60;4.25;;;;;;;16.93;55.25;99095.84;5094674;28;20409;-69
2024/04/08 08:58:30;;;;;;;9.10;4.40;;;;;;;17.03;55.61;99100.31;5112589;28;20040;-67
2024/04/08 09:02:33;;;;;;;9.68;4.53;;;;;;;17.14;55.20;99095.59;5431905;26;20350;-67
2024/04/08 09:04:59;;;;;;;6.82;3.65;;;;;;;17.22;55.28;99094.97;5373823;26;20001;-68
2024/04/08 09:07:24;;;;;;;7.70;4.15;;;;;;;17.34;54.92;99091.88;5352067;26;20009;-67
2024/04/08 09:09:54;;;;;;;7.07;3.90;;;;;;;17.30;54.39;99098.91;5325805;27;20458;-69
2024/04/08 09:12:20;;;;;;;5.73;4.00;;;;;;;17.13;55.17;99084.09;5335488;26;20023;-68
2024/04/08 09:14:51;;;;;;;7.28;4.32;;;;;;;16.99;55.45;99084.00;5360307;26;20465;-68
2024/04/08 09:17:18;;;;;;;10.60;4.10;;;;;;;16.97;55.93;99088.03;5357686;26;20009;-68
2024/04/08 09:19:44;;;;;;;6.82;3.72;;;;;;;17.00;56.05;99085.63;5361945;26;20005;-67
2024/04/08 09:22:11;;;;;;;9.32;3.92;;;;;;;17.19;55.53;99079.47;5353881;26;20104;-67
2024/04/08 09:24:37;;;;;;;9.50;4.22;;;;;;;17.25;55.04;99086.34;5359792;26;20008;-66
2024/04/08 09:27:03;;;;;;;7.53;3.95;;;;;;;17.45;55.09;99080.72;5329356;26;20015;-67
2024/04/08 09:29:29;;;;;;;6.97;3.72;;;;;;;17.56;54.42;99081.38;5360325;26;20481;-65
2024/04/08 09:31:56;;;;;;;4.97;3.80;;;;;;;17.60;54.03;99085.06;5360177;26;20015;-66
2024/04/08 09:34:25;;;;;;;6.85;3.78;;;;;;;17.46;54.53;99084.19;5359081;26;20487;-65
2024/04/08 09:36:52;;;;;;;7.60;4.35;;;;;;;17.47;54.78;99101.84;5301238;26;20012;-66
2024/04/08 09:39:19;;;;;;;6.97;3.88;;;;;;;17.41;54.45;99101.16;5330463;26;20494;-65
2024/04/08 09:41:44;;;;;;;4.93;3.90;;;;;;;17.47;54.77;99113.38;5361473;26;20070;-65
2024/04/08 09:44:12;;;;;;;4.53;3.22;;;;;;;17.69;54.02;99115.47;5359204;26;20444;-66
2024/04/08 09:46:42;;;;;;;8.27;4.00;;;;;;;17.81;54.14;99095.50;5361442;26;20001;-67
2024/04/08 09:49:11;;;;;;;6.95;4.10;;;;;;;17.90;53.88;99101.78;5359552;26;20079;-66
2024/04/08 09:51:41;;;;;;;9.30;3.92;;;;;;;17.89;53.43;99097.53;5361033;26;20078;-67
2024/04/08 09:54:08;;;;;;;7.72;4.00;;;;;;;17.84;53.40;99095.72;5360727;26;20024;-67
2024/04/08 09:56:36;;;;;;;7.82;4.05;;;;;;;17.89;53.52;99106.38;5327857;26;20005;-64
2024/04/08 09:59:08;;;;;;;9.05;4.50;;;;;;;17.89;53.38;99101.00;5327503;26;20425;-65
2024/04/08 10:01:38;;;;;;;5.18;3.72;;;;;;;17.97;53.07;99109.44;5360380;26;20020;-65
2024/04/08 10:04:13;;;;;;;5.45;3.90;;;;;;;17.96;53.29;99105.19;5329091;26;20024;-65
2024/04/08 10:06:41;;;;;;;9.43;4.15;;;;;;;17.93;52.87;99114.63;5357827;26;20074;-66
2024/04/08 10:09:09;;;;;;;8.43;3.67;;;;;;;17.76;53.47;99114.31;5356608;26;20033;-66
2024/04/08 10:11:35;;;;;;;12.27;3.90;;;;;;;17.65;54.59;99116.38;5353218;26;20053;-65
2024/04/08 10:14:01;;;;;;;10.00;3.95;;;;;;;17.61;54.54;99104.63;5340801;26;20082;-66
2024/04/08 10:16:27;;;;;;;9.38;4.10;;;;;;;17.62;54.77;99103.53;5286691;26;20005;-68
2024/04/08 10:18:54;;;;;;;8.82;4.05;;;;;;;17.60;54.38;99116.44;5341573;26;20399;-67
2024/04/08 10:21:22;;;;;;;7.03;3.90;;;;;;;17.59;54.56;99117.50;5345439;26;20763;-68
2024/04/08 10:23:51;;;;;;;8.45;4.03;;;;;;;17.58;54.80;99142.72;5344864;26;20343;-67
2024/04/08 10:26:17;;;;;;;7.77;4.23;;;;;;;17.66;54.88;99123.31;5342688;26;20020;-66
2024/04/08 10:28:43;;;;;;;7.95;3.50;;;;;;;17.70;54.44;99102.88;5345719;26;20009;-65
2024/04/08 10:31:12;;;;;;;12.27;4.15;;;;;;;17.93;54.35;99128.81;5345585;26;20087;-67
2024/04/08 10:33:38;;;;;;;7.60;3.65;;;;;;;17.98;53.75;99111.06;5345763;26;20023;-67
2024/04/08 10:36:04;;;;;;;6.10;3.58;;;;;;;17.92;53.73;99111.13;5343682;26;20016;-64
2024/04/08 10:38:30;;;;;;;8.98;3.88;;;;;;;17.95;53.90;99119.69;5343999;26;20466;-65
2024/04/08 10:41:05;;;;;;;5.80;3.78;;;;;;;18.05;53.81;99125.69;5338512;26;20374;-65
2024/04/08 10:43:32;;;;;;;7.28;4.07;;;;;;;18.12;53.77;99126.13;5346018;26;20024;-64
2024/04/08 10:45:57;;;;;;;7.20;4.05;;;;;;;17.91;53.74;99087.28;5335113;26;20505;-64
2024/04/08 10:48:23;;;;;;;5.20;3.80;;;;;;;18.09;53.63;99110.59;5345919;26;20005;-64
2024/04/08 10:50:51;;;;;;;5.28;3.55;;;;;;;18.09;53.90;99121.34;5332624;26;20024;-65
2024/04/08 10:53:18;;;;;;;7.18;3.70;;;;;;;18.12;53.56;99114.59;5345959;26;20008;-65
2024/04/08 10:55:43;;;;;;;5.50;3.65;;;;;;;18.12;53.66;99136.84;5331651;26;20009;-65
2024/04/08 10:58:11;;;;;;;9.40;3.60;;;;;;;18.10;53.73;99128.28;5345827;26;20009;-67
2024/04/08 11:00:37;;;;;;;6.63;3.75;;;;;;;18.02;53.90;99128.16;5344989;26;20041;-63
2024/04/08 11:03:03;;;;;;;6.55;3.85;;;;;;;17.96;54.07;99123.97;5344160;26;20005;-63
2024/04/08 11:05:30;;;;;;;9.98;3.88;;;;;;;17.80;54.77;99113.47;5326946;26;20047;-64
2024/04/08 11:08:00;;;;;;;8.10;3.80;;;;;;;17.74;54.42;99122.66;5342132;26;20013;-65
2024/04/08 11:10:27;;;;;;;8.60;4.07;;;;;;;17.71;54.69;99131.28;5327467;26;20037;-65
2024/04/08 11:12:53;;;;;;;10.10;3.78;;;;;;;17.56;55.38;99136.84;5337766;26;20004;-65
2024/04/08 11:15:19;;;;;;;6.03;3.60;;;;;;;17.40;55.77;99136.25;5300291;26;20419;-65
2024/04/08 11:17:45;;;;;;;8.52;3.88;;;;;;;17.26;55.90;99136.16;5336472;26;20009;-66
2024/04/08 11:20:16;;;;;;;9.77;3.45;;;;;;;17.07;56.43;99138.81;5332734;26;20010;-66
2024/04/08 11:22:45;;;;;;;9.55;4.00;;;;;;;16.97;56.63;99149.63;5277946;26;20017;-65
2024/04/08 11:25:15;;;;;;;8.48;4.20;;;;;;;16.88;57.31;99144.09;5342328;26;20086;-67
2024/04/08 11:27:42;;;;;;;8.48;3.78;;;;;;;16.85;57.41;99144.66;5341827;26;20005;-62
2024/04/08 11:30:10;;;;;;;6.47;3.58;;;;;;;16.84;57.56;99147.66;5344657;26;20024;-61
2024/04/08 11:32:36;;;;;;;8.70;3.55;;;;;;;16.81;57.68;99146.31;5343433;26;20019;-62
2024/04/08 11:35:03;;;;;;;4.03;3.20;;;;;;;16.81;57.55;99140.97;5334423;26;20370;-63